Time;durP1;ratioP1;P1;durP2;ratioP2;P2;SDS_P1;SDS_P2;PMS_P1;PMS_P2;Temp;Humidity;BMP_temperature;BMP_pressure;BME280_temperature;BME280_humidity;BME280_pressure;Samples;Min_cycle;Max_cycle;Signal;HPM_P1;HPM_P2
2022/07/15 00:00:08;;;;;;;0.75;0.38;;;;;20.90;102133.00;;;;5034701;28;20191;-77
2022/07/15 00:02:35;;;;;;;4.95;1.25;;;;;20.90;102144.00;;;;5030171;28;20235;-77
2022/07/15 00:05:03;;;;;;;1.60;0.65;;;;;20.90;102154.00;;;;5034683;28;20207;-77
2022/07/15 00:07:30;;;;;;;0.40;0.30;;;;;20.80;102146.00;;;;5032204;28;20199;-77
2022/07/15 00:10:18;;;;;;;3.95;0.65;;;;;20.80;102146.00;;;;5029496;28;20196;-77
2022/07/15 00:12:50;;;;;;;2.30;0.52;;;;;20.70;102151.00;;;;5033911;28;20192;-77
2022/07/15 00:15:19;;;;;;;2.65;0.63;;;;;20.70;102149.00;;;;5032372;28;20223;-78
2022/07/15 00:17:47;;;;;;;2.83;0.65;;;;;20.70;102145.00;;;;5031046;28;20200;-76
2022/07/15 00:20:15;;;;;;;2.08;0.60;;;;;20.70;102148.00;;;;5033646;28;20196;-77
2022/07/15 00:22:43;;;;;;;1.58;0.57;;;;;20.60;102146.00;;;;5028771;28;20211;-77
2022/07/15 00:25:13;;;;;;;1.92;0.77;;;;;20.60;102149.00;;;;5027416;28;20212;-77
2022/07/15 00:27:52;;;;;;;2.22;0.70;;;;;20.50;102143.00;;;;5042969;28;20681;-77
2022/07/15 00:30:19;;;;;;;2.08;0.50;;;;;20.60;102142.00;;;;5034056;28;20227;-77
2022/07/15 00:32:47;;;;;;;1.55;0.65;;;;;20.50;102139.00;;;;5028921;28;20212;-77
2022/07/15 00:35:14;;;;;;;3.33;0.65;;;;;20.50;102134.00;;;;5034408;28;20302;-77
2022/07/15 00:37:42;;;;;;;1.75;0.40;;;;;20.50;102131.00;;;;5037760;28;20204;-77
2022/07/15 00:40:12;;;;;;;2.53;0.80;;;;;20.50;102137.00;;;;5043977;28;20206;-77
2022/07/15 00:42:45;;;;;;;2.28;0.38;;;;;20.40;102142.00;;;;5028115;28;20220;-77
2022/07/15 00:45:13;;;;;;;5.40;0.85;;;;;20.40;102138.00;;;;5031943;28;20211;-77
2022/07/15 00:47:41;;;;;;;3.00;0.70;;;;;20.40;102136.00;;;;5043705;28;20199;-77
2022/07/15 00:50:09;;;;;;;1.80;0.60;;;;;20.40;102135.00;;;;5028098;28;20187;-77
2022/07/15 00:52:39;;;;;;;1.75;0.73;;;;;20.30;102135.00;;;;5027483;28;20207;-77
2022/07/15 00:55:11;;;;;;;2.10;0.50;;;;;20.30;102129.00;;;;5036810;28;20199;-77
2022/07/15 00:57:40;;;;;;;1.40;0.50;;;;;20.30;102131.00;;;;5047103;28;20242;-76
2022/07/15 01:00:10;;;;;;;1.35;0.70;;;;;20.30;102126.00;;;;5037762;28;20204;-77
2022/07/15 01:02:38;;;;;;;2.75;0.98;;;;;20.20;102130.00;;;;5045714;28;20196;-77
2022/07/15 01:05:10;;;;;;;1.55;0.70;;;;;20.20;102131.00;;;;5046300;28;20208;-77
2022/07/15 01:07:38;;;;;;;1.98;0.52;;;;;20.20;102129.00;;;;5029341;28;20200;-77
2022/07/15 01:10:06;;;;;;;2.05;0.60;;;;;20.20;102130.00;;;;5039841;28;20265;-77
2022/07/15 01:12:37;;;;;;;2.67;0.70;;;;;20.10;102131.00;;;;5034532;28;20204;-76
2022/07/15 01:15:05;;;;;;;3.15;0.73;;;;;20.10;102130.00;;;;5027656;28;20200;-77
2022/07/15 01:17:33;;;;;;;1.80;0.70;;;;;20.10;102134.00;;;;5037110;28;20204;-77
2022/07/15 01:20:00;;;;;;;1.00;0.40;;;;;20.10;102131.00;;;;5031991;28;20192;-77
2022/07/15 01:22:29;;;;;;;2.50;0.73;;;;;20.00;102127.00;;;;5034648;28;20196;-77
2022/07/15 01:24:56;;;;;;;1.23;0.75;;;;;20.00;102134.00;;;;5027877;28;20204;-77
2022/07/15 01:27:23;;;;;;;3.45;0.70;;;;;20.00;102133.00;;;;5025830;28;20976;-78
2022/07/15 01:29:51;;;;;;;2.80;0.55;;;;;20.00;102126.00;;;;5028146;28;20204;-76
2022/07/15 01:32:18;;;;;;;1.52;0.50;;;;;19.90;102128.00;;;;5027985;28;20314;-76
2022/07/15 01:34:48;;;;;;;1.98;0.55;;;;;19.90;102119.00;;;;5033278;28;20200;-76
2022/07/15 01:37:15;;;;;;;0.85;0.40;;;;;19.90;102121.00;;;;5026903;28;20247;-77
2022/07/15 01:39:44;;;;;;;0.38;0.30;;;;;19.80;102126.00;;;;5038307;28;20668;-78
2022/07/15 01:42:11;;;;;;;2.67;0.52;;;;;19.80;102131.00;;;;5026710;28;20212;-78
2022/07/15 01:44:39;;;;;;;1.50;0.80;;;;;19.80;102137.00;;;;5027795;28;20192;-78
2022/07/15 01:47:06;;;;;;;1.50;0.82;;;;;19.80;102131.00;;;;5029201;28;20200;-78
2022/07/15 01:49:34;;;;;;;2.15;0.77;;;;;19.70;102137.00;;;;5026433;28;20204;-78
2022/07/15 01:52:03;;;;;;;3.50;0.70;;;;;19.70;102140.00;;;;5027383;28;20575;-78
2022/07/15 01:54:33;;;;;;;0.57;0.45;;;;;19.70;102136.00;;;;5034081;28;20200;-78
2022/07/15 01:57:01;;;;;;;1.13;0.45;;;;;19.70;102138.00;;;;5026784;28;20329;-77
2022/07/15 01:59:29;;;;;;;2.33;0.80;;;;;19.60;102137.00;;;;5034482;28;20688;-78
2022/07/15 02:01:58;;;;;;;2.40;0.60;;;;;19.60;102130.00;;;;5032224;28;20199;-78
2022/07/15 02:04:28;;;;;;;1.27;0.70;;;;;19.60;102137.00;;;;5028607;28;20694;-78
2022/07/15 02:06:56;;;;;;;1.77;0.45;;;;;19.60;102136.00;;;;5033896;28;20204;-78
2022/07/15 02:09:23;;;;;;;1.98;0.68;;;;;19.60;102132.00;;;;5038066;28;20199;-78
2022/07/15 02:11:50;;;;;;;2.15;0.73;;;;;19.50;102134.00;;;;5036869;28;20678;-78
2022/07/15 02:14:19;;;;;;;2.17;0.55;;;;;19.50;102131.00;;;;5031617;28;20576;-78
2022/07/15 02:16:46;;;;;;;1.80;0.63;;;;;19.50;102137.00;;;;5030906;28;20228;-78
2022/07/15 02:19:14;;;;;;;1.75;0.40;;;;;19.50;102138.00;;;;5029574;28;20667;-78
2022/07/15 02:21:41;;;;;;;3.28;1.00;;;;;19.50;102137.00;;;;5048131;28;20210;-78
2022/07/15 02:24:09;;;;;;;1.30;0.60;;;;;19.40;102137.00;;;;5030062;28;20670;-77
2022/07/15 02:26:36;;;;;;;1.38;0.73;;;;;19.40;102132.00;;;;5030775;28;20287;-77
2022/07/15 02:29:04;;;;;;;2.50;0.73;;;;;19.40;102133.00;;;;5037107;28;20223;-77
2022/07/15 02:31:32;;;;;;;2.13;0.52;;;;;19.40;102141.00;;;;5043773;28;20206;-78
2022/07/15 02:34:00;;;;;;;1.92;0.43;;;;;19.40;102145.00;;;;5037456;28;20192;-77
2022/07/15 02:36:27;;;;;;;0.98;0.40;;;;;19.30;102147.00;;;;5047083;28;20577;-77
2022/07/15 02:38:54;;;;;;;1.42;0.60;;;;;19.30;102135.00;;;;5039584;28;20207;-77
2022/07/15 02:41:23;;;;;;;3.33;0.95;;;;;19.30;102131.00;;;;5029783;28;20287;-77
2022/07/15 02:43:50;;;;;;;1.65;0.50;;;;;19.30;102137.00;;;;5037341;28;20220;-77
2022/07/15 02:46:18;;;;;;;0.63;0.30;;;;;19.30;102140.00;;;;5034261;28;20197;-77
2022/07/15 02:48:47;;;;;;;1.23;0.50;;;;;19.30;102142.00;;;;5030542;28;20192;-77
2022/07/15 02:51:15;;;;;;;1.17;0.40;;;;;19.30;102141.00;;;;5036446;28;20191;-77
2022/07/15 02:53:42;;;;;;;1.98;0.77;;;;;19.20;102141.00;;;;5047094;28;20200;-77
2022/07/15 02:56:10;;;;;;;0.80;0.40;;;;;19.20;102144.00;;;;5035246;28;20235;-77
2022/07/15 02:58:37;;;;;;;1.30;0.50;;;;;19.20;102146.00;;;;5030735;28;20251;-77
2022/07/15 03:01:05;;;;;;;3.15;0.70;;;;;19.20;102146.00;;;;5030463;28;20196;-77
2022/07/15 03:03:32;;;;;;;2.65;0.88;;;;;19.20;102139.00;;;;5035444;28;22281;-77
2022/07/15 03:06:01;;;;;;;2.45;0.70;;;;;19.20;102153.00;;;;5045125;28;20191;-77
2022/07/15 03:08:28;;;;;;;1.83;0.57;;;;;19.20;102149.00;;;;5030982;28;20203;-77
2022/07/15 03:10:56;;;;;;;2.47;0.70;;;;;19.20;102156.00;;;;5039862;28;20208;-78
2022/07/15 03:13:25;;;;;;;4.15;0.60;;;;;19.20;102150.00;;;;5040063;28;20226;-77
2022/07/15 03:15:52;;;;;;;1.45;0.60;;;;;19.10;102152.00;;;;5045094;28;20205;-77
2022/07/15 03:18:20;;;;;;;1.15;0.50;;;;;19.10;102160.00;;;;5048340;28;20233;-78
2022/07/15 03:20:48;;;;;;;0.88;0.50;;;;;19.10;102155.00;;;;5030228;28;20211;-77
2022/07/15 03:23:17;;;;;;;2.15;0.75;;;;;19.10;102158.00;;;;5029821;28;20628;-77
2022/07/15 03:25:45;;;;;;;4.90;1.02;;;;;19.10;102160.00;;;;5037341;28;20192;-78
2022/07/15 03:28:12;;;;;;;2.17;0.60;;;;;19.10;102164.00;;;;5034204;28;20204;-78
2022/07/15 03:30:40;;;;;;;3.45;1.02;;;;;19.10;102157.00;;;;5038033;28;20197;-77
2022/07/15 03:33:07;;;;;;;2.38;1.20;;;;;19.10;102162.00;;;;5040060;28;20212;-77
2022/07/15 03:35:34;;;;;;;2.58;1.05;;;;;19.00;102166.00;;;;5034153;28;20192;-77
2022/07/15 03:38:02;;;;;;;2.03;0.90;;;;;19.00;102168.00;;;;5035539;28;20224;-77
2022/07/15 03:40:30;;;;;;;1.40;0.75;;;;;19.00;102175.00;;;;5039456;28;20223;-77
2022/07/15 03:42:57;;;;;;;2.00;1.05;;;;;19.00;102173.00;;;;5038947;28;20605;-78
2022/07/15 03:45:25;;;;;;;1.02;0.68;;;;;19.00;102174.00;;;;5034747;28;20686;-77
2022/07/15 03:47:52;;;;;;;2.85;1.13;;;;;19.00;102173.00;;;;5030081;28;20198;-77
2022/07/15 03:50:20;;;;;;;2.00;1.00;;;;;19.00;102185.00;;;;5033009;28;20581;-77
2022/07/15 03:52:47;;;;;;;3.65;0.75;;;;;19.00;102180.00;;;;5029401;28;20204;-77
2022/07/15 03:55:15;;;;;;;1.42;0.70;;;;;19.00;102181.00;;;;5031311;28;20204;-77
2022/07/15 03:57:43;;;;;;;1.80;0.90;;;;;18.90;102176.00;;;;5029672;28;20690;-77
2022/07/15 04:00:12;;;;;;;0.98;0.80;;;;;18.90;102191.00;;;;5044744;28;20646;-77
2022/07/15 04:02:39;;;;;;;1.17;0.70;;;;;18.90;102191.00;;;;5033602;28;20750;-77
2022/07/15 04:05:07;;;;;;;1.38;0.82;;;;;18.90;102192.00;;;;5027773;28;20192;-77
2022/07/15 04:07:35;;;;;;;2.50;0.70;;;;;18.90;102192.00;;;;5031323;28;20247;-77
2022/07/15 04:10:02;;;;;;;1.98;0.65;;;;;18.90;102191.00;;;;5027090;28;20207;-77
2022/07/15 04:12:29;;;;;;;2.05;0.63;;;;;18.90;102191.00;;;;5033498;28;20196;-77
2022/07/15 04:14:58;;;;;;;1.17;0.98;;;;;18.90;102196.00;;;;5029426;28;20207;-78
2022/07/15 04:17:26;;;;;;;3.30;0.93;;;;;18.90;102196.00;;;;5027554;28;20592;-77
2022/07/15 04:19:53;;;;;;;1.52;0.75;;;;;18.90;102191.00;;;;5030760;28;20215;-77
2022/07/15 04:22:20;;;;;;;1.95;0.80;;;;;18.90;102192.00;;;;5029491;28;20200;-77
2022/07/15 04:24:47;;;;;;;2.50;0.50;;;;;18.90;102191.00;;;;5032741;28;20197;-77
2022/07/15 04:27:15;;;;;;;2.33;0.63;;;;;18.90;102194.00;;;;5028146;28;20197;-77
2022/07/15 04:29:42;;;;;;;2.10;0.88;;;;;18.90;102196.00;;;;5040393;28;20199;-77
2022/07/15 04:32:11;;;;;;;2.25;0.90;;;;;18.90;102203.00;;;;5038113;28;20671;-77
2022/07/15 04:34:38;;;;;;;2.38;0.68;;;;;18.90;102198.00;;;;5033442;28;20203;-77
2022/07/15 04:37:05;;;;;;;2.20;0.82;;;;;19.00;102193.00;;;;5030464;28;20224;-76
2022/07/15 04:39:33;;;;;;;1.25;0.80;;;;;19.00;102201.00;;;;5033110;28;20565;-76
2022/07/15 04:42:00;;;;;;;2.17;1.00;;;;;19.00;102209.00;;;;5031596;28;20196;-77
2022/07/15 04:44:27;;;;;;;3.22;0.88;;;;;19.00;102206.00;;;;5028386;28;20192;-77
2022/07/15 04:46:54;;;;;;;3.63;0.90;;;;;19.10;102208.00;;;;5034632;28;20633;-77
2022/07/15 04:52:08;;;;;;;1.15;0.80;;;;;19.20;102209.00;;;;5032268;28;20219;-77
2022/07/15 04:54:37;;;;;;;2.55;1.10;;;;;19.20;102202.00;;;;5039235;28;20211;-76
2022/07/15 04:57:05;;;;;;;4.15;1.08;;;;;19.20;102201.00;;;;5031145;28;20239;-77
2022/07/15 04:59:33;;;;;;;2.47;1.17;;;;;19.30;102205.00;;;;5032677;28;20296;-77
2022/07/15 05:02:00;;;;;;;2.00;1.30;;;;;19.30;102204.00;;;;5029698;28;20220;-78
2022/07/15 05:04:29;;;;;;;2.00;1.33;;;;;19.40;102215.00;;;;5041805;28;20202;-77
2022/07/15 05:06:57;;;;;;;2.45;1.17;;;;;19.40;102206.00;;;;5031886;28;20204;-77
2022/07/15 05:09:24;;;;;;;1.85;1.35;;;;;19.50;102200.00;;;;5029573;28;20196;-78
2022/07/15 05:11:51;;;;;;;4.25;1.10;;;;;19.50;102207.00;;;;5034102;28;20689;-78
2022/07/15 05:14:19;;;;;;;3.60;1.40;;;;;19.60;102210.00;;;;5027477;28;20211;-77
2022/07/15 05:16:46;;;;;;;1.98;1.30;;;;;19.70;102204.00;;;;5039037;28;20215;-78
2022/07/15 05:19:13;;;;;;;2.72;1.67;;;;;19.70;102204.00;;;;5035035;28;20601;-78
2022/07/15 05:21:42;;;;;;;2.92;1.63;;;;;19.80;102208.00;;;;5034114;28;20211;-77
2022/07/15 05:24:09;;;;;;;5.47;1.58;;;;;19.90;102208.00;;;;5027623;28;20655;-78
2022/07/15 05:26:37;;;;;;;4.13;1.50;;;;;20.00;102212.00;;;;5034845;28;20199;-77
2022/07/15 05:29:04;;;;;;;2.25;1.48;;;;;20.00;102210.00;;;;5031039;28;20215;-77
2022/07/15 05:31:31;;;;;;;2.25;1.58;;;;;20.10;102214.00;;;;5027944;28;20199;-77
2022/07/15 05:33:59;;;;;;;3.63;1.65;;;;;20.20;102211.00;;;;5028201;28;20192;-77
2022/07/15 05:36:26;;;;;;;4.93;1.90;;;;;20.30;102207.00;;;;5037297;28;20589;-77
2022/07/15 05:38:55;;;;;;;2.85;1.25;;;;;20.30;102211.00;;;;5033593;28;20204;-78
2022/07/15 05:41:22;;;;;;;2.78;1.13;;;;;20.40;102217.00;;;;5033807;28;20204;-77
2022/07/15 05:43:49;;;;;;;3.33;1.63;;;;;20.50;102210.00;;;;5038747;28;20219;-77
2022/07/15 05:46:17;;;;;;;3.55;1.70;;;;;20.60;102217.00;;;;5045687;28;20190;-78
2022/07/15 05:48:44;;;;;;;3.35;1.38;;;;;20.70;102214.00;;;;5051764;28;20195;-77
2022/07/15 05:51:11;;;;;;;2.92;1.20;;;;;20.70;102221.00;;;;5060966;28;20199;-78
2022/07/15 05:53:38;;;;;;;2.47;1.02;;;;;20.80;102214.00;;;;5055886;28;20967;-78
2022/07/15 05:56:08;;;;;;;3.50;1.25;;;;;20.90;102208.00;;;;5034435;28;20231;-78
2022/07/15 05:58:36;;;;;;;3.13;0.98;;;;;21.00;102216.00;;;;5040637;28;20220;-78
2022/07/15 06:01:04;;;;;;;3.20;1.35;;;;;21.10;102209.00;;;;5044879;28;20211;-77
2022/07/15 06:03:32;;;;;;;1.77;1.05;;;;;21.20;102209.00;;;;5052090;28;20199;-77
2022/07/15 06:06:06;;;;;;;2.92;1.25;;;;;21.20;102221.00;;;;5051280;28;20219;-78
2022/07/15 06:08:34;;;;;;;1.65;0.80;;;;;21.30;102216.00;;;;5038296;28;20233;-78
2022/07/15 06:11:01;;;;;;;3.10;1.25;;;;;21.40;102222.00;;;;5038906;28;20204;-78
2022/07/15 06:13:30;;;;;;;2.63;1.27;;;;;21.50;102210.00;;;;5039772;28;20203;-78
2022/07/15 06:15:57;;;;;;;1.48;0.75;;;;;21.60;102208.00;;;;5046822;28;20657;-78
2022/07/15 06:18:25;;;;;;;2.63;1.08;;;;;21.70;102209.00;;;;5039361;28;20234;-78
2022/07/15 06:20:53;;;;;;;1.10;0.80;;;;;21.80;102216.00;;;;5037606;28;20200;-79
2022/07/15 06:23:31;;;;;;;1.48;0.73;;;;;21.80;102204.00;;;;5038089;28;20198;-80
2022/07/15 06:25:59;;;;;;;2.25;0.60;;;;;22.00;102213.00;;;;5036546;28;20202;-78
2022/07/15 06:28:26;;;;;;;1.25;0.63;;;;;22.00;102203.00;;;;5037850;28;20192;-78
2022/07/15 06:30:55;;;;;;;1.52;0.50;;;;;22.10;102209.00;;;;5038356;28;20196;-78
2022/07/15 06:33:24;;;;;;;4.18;0.90;;;;;22.20;102208.00;;;;5032558;28;20192;-79
2022/07/15 06:35:51;;;;;;;3.75;0.52;;;;;22.30;102204.00;;;;5052311;28;20196;-78
2022/07/15 06:38:18;;;;;;;2.33;0.82;;;;;22.40;102211.00;;;;5050816;28;20234;-78
2022/07/15 06:40:46;;;;;;;2.47;0.70;;;;;22.50;102220.00;;;;5038367;28;20275;-79
2022/07/15 06:43:14;;;;;;;0.98;0.45;;;;;22.50;102217.00;;;;5038854;28;20220;-77
2022/07/15 06:45:41;;;;;;;1.77;0.47;;;;;22.60;102216.00;;;;5039132;28;20566;-77
2022/07/15 06:48:10;;;;;;;0.75;0.30;;;;;22.70;102219.00;;;;5037915;28;20683;-79
2022/07/15 06:50:43;;;;;;;2.03;0.40;;;;;22.70;102226.00;;;;5037300;28;20206;-78
2022/07/15 06:53:11;;;;;;;1.50;0.38;;;;;22.80;102230.00;;;;5039904;28;20208;-78
2022/07/15 06:55:39;;;;;;;2.35;0.40;;;;;22.90;102230.00;;;;5039611;28;20770;-78
2022/07/15 06:58:07;;;;;;;2.50;0.75;;;;;23.00;102226.00;;;;5040554;28;20296;-78
2022/07/15 07:00:34;;;;;;;1.50;0.52;;;;;23.10;102221.00;;;;5037239;28;20200;-78
2022/07/15 07:03:02;;;;;;;0.70;0.30;;;;;23.20;102224.00;;;;5030352;28;20199;-77
2022/07/15 07:05:30;;;;;;;3.67;0.65;;;;;23.30;102217.00;;;;5028736;28;20201;-78
2022/07/15 07:07:58;;;;;;;2.03;0.50;;;;;23.40;102222.00;;;;5036854;28;20207;-78
2022/07/15 07:10:27;;;;;;;4.65;0.80;;;;;23.50;102224.00;;;;5039582;28;20266;-78
2022/07/15 07:12:54;;;;;;;1.02;0.30;;;;;23.50;102233.00;;;;5037941;28;20197;-77
2022/07/15 07:15:23;;;;;;;2.30;0.60;;;;;23.60;102234.00;;;;5044197;28;20202;-79
2022/07/15 07:17:51;;;;;;;1.75;0.40;;;;;23.70;102235.00;;;;5046843;28;20223;-79
2022/07/15 07:20:19;;;;;;;3.05;0.75;;;;;23.80;102236.00;;;;5041781;28;20203;-79
2022/07/15 07:22:47;;;;;;;2.13;0.40;;;;;23.90;102235.00;;;;5041523;28;20196;-77
2022/07/15 07:25:15;;;;;;;3.55;0.40;;;;;24.00;102238.00;;;;5038970;28;20212;-77
2022/07/15 07:27:42;;;;;;;1.35;0.47;;;;;24.10;102237.00;;;;5039550;28;20284;-77
2022/07/15 07:30:10;;;;;;;3.40;0.70;;;;;24.20;102240.00;;;;5044405;28;20210;-78
2022/07/15 07:32:37;;;;;;;1.70;0.35;;;;;24.30;102238.00;;;;5034501;28;20564;-78
2022/07/15 07:35:05;;;;;;;3.17;0.50;;;;;24.40;102226.00;;;;5048560;28;20200;-78
2022/07/15 07:37:35;;;;;;;2.35;0.50;;;;;24.40;102231.00;;;;5031550;28;20228;-79
2022/07/15 07:40:06;;;;;;;3.15;0.85;;;;;24.50;102229.00;;;;5039298;28;20624;-78
2022/07/15 07:42:34;;;;;;;2.95;0.50;;;;;24.60;102234.00;;;;5036183;28;20252;-78
2022/07/15 07:45:02;;;;;;;3.05;0.40;;;;;24.70;102236.00;;;;5048797;28;20204;-80
2022/07/15 07:47:30;;;;;;;1.90;0.28;;;;;24.80;102235.00;;;;5045988;28;20246;-79
2022/07/15 07:49:57;;;;;;;2.30;0.60;;;;;24.90;102235.00;;;;5034517;28;20208;-76
2022/07/15 07:52:24;;;;;;;1.38;0.30;;;;;25.00;102232.00;;;;5036727;28;20231;-78
2022/07/15 07:54:51;;;;;;;3.22;1.00;;;;;25.00;102234.00;;;;5034229;28;20678;-77
2022/07/15 07:57:20;;;;;;;3.05;0.60;;;;;25.10;102236.00;;;;5049536;28;20224;-77
2022/07/15 07:59:47;;;;;;;0.90;0.40;;;;;25.30;102242.00;;;;5039739;28;20196;-78
2022/07/15 08:02:15;;;;;;;2.17;0.40;;;;;25.40;102240.00;;;;5032992;28;20200;-80
2022/07/15 08:04:42;;;;;;;1.13;0.40;;;;;25.50;102243.00;;;;5032036;28;20204;-79
2022/07/15 08:07:11;;;;;;;2.75;0.43;;;;;25.60;102241.00;;;;5040727;28;20207;-80
2022/07/15 08:09:38;;;;;;;1.30;0.35;;;;;25.60;102240.00;;;;5041668;28;20204;-80
2022/07/15 08:12:06;;;;;;;1.13;0.38;;;;;25.60;102241.00;;;;5030989;28;20203;-80
2022/07/15 08:14:34;;;;;;;3.72;0.47;;;;;25.60;102234.00;;;;5041650;28;20670;-80
2022/07/15 08:17:01;;;;;;;1.42;0.75;;;;;25.70;102239.00;;;;5041722;28;20200;-79
2022/07/15 08:19:29;;;;;;;0.85;0.30;;;;;25.80;102242.00;;;;5048808;28;20235;-77
2022/07/15 08:21:56;;;;;;;2.13;0.50;;;;;25.90;102245.00;;;;5046797;28;20192;-77
2022/07/15 08:24:23;;;;;;;2.85;0.63;;;;;26.00;102244.00;;;;5034777;28;20208;-78
2022/07/15 08:26:51;;;;;;;2.05;0.30;;;;;26.00;102244.00;;;;5027417;28;20211;-78
2022/07/15 08:29:18;;;;;;;3.53;0.45;;;;;26.00;102239.00;;;;5026953;28;20200;-78
2022/07/15 08:31:47;;;;;;;1.33;0.50;;;;;25.90;102245.00;;;;5042269;28;20575;-78
2022/07/15 08:34:14;;;;;;;1.73;0.40;;;;;25.90;102232.00;;;;5035969;28;20200;-78
2022/07/15 08:36:41;;;;;;;1.35;0.43;;;;;26.00;102239.00;;;;5036330;28;20202;-78
2022/07/15 08:39:09;;;;;;;2.38;0.68;;;;;26.00;102241.00;;;;5036719;28;20759;-78
2022/07/15 08:41:37;;;;;;;0.70;0.20;;;;;26.20;102240.00;;;;5048029;28;20199;-78
2022/07/15 08:44:06;;;;;;;1.63;0.30;;;;;26.20;102243.00;;;;5040096;28;20719;-78
2022/07/15 08:46:35;;;;;;;1.55;0.40;;;;;26.30;102238.00;;;;5028565;28;20204;-78
2022/07/15 08:49:08;;;;;;;2.05;0.40;;;;;26.30;102238.00;;;;5027997;28;20204;-78
2022/07/15 08:51:38;;;;;;;0.77;0.52;;;;;26.30;102240.00;;;;5029173;28;20287;-78
2022/07/15 08:54:06;;;;;;;1.73;0.40;;;;;26.30;102239.00;;;;5029018;28;20204;-78
2022/07/15 08:56:35;;;;;;;1.30;0.50;;;;;26.20;102242.00;;;;5027922;28;20275;-78
2022/07/15 08:59:02;;;;;;;2.67;0.20;;;;;26.20;102230.00;;;;5036841;28;20318;-78
2022/07/15 09:01:30;;;;;;;1.52;0.47;;;;;26.20;102231.00;;;;5045924;28;20209;-78
2022/07/15 09:03:58;;;;;;;2.13;0.30;;;;;26.30;102239.00;;;;5026686;28;20203;-78
2022/07/15 09:06:34;;;;;;;2.25;0.30;;;;;26.20;102237.00;;;;5027808;28;20211;-78
2022/07/15 09:09:29;;;;;;;0.93;0.40;;;;;26.30;102239.00;;;;5027798;28;20215;-78
2022/07/15 09:12:00;;;;;;;1.13;0.32;;;;;26.50;102239.00;;;;5028378;28;20204;-78
2022/07/15 09:14:29;;;;;;;3.47;0.90;;;;;26.60;102229.00;;;;5027134;28;20193;-78
2022/07/15 09:17:24;;;;;;;1.17;0.35;;;;;26.40;102235.00;;;;5027746;28;20201;-78
2022/07/15 09:20:07;;;;;;;1.02;0.30;;;;;26.50;102233.00;;;;5026464;28;20227;-78
2022/07/15 09:22:50;;;;;;;0.50;0.30;;;;;26.40;102225.00;;;;5027930;28;20231;-78
2022/07/15 09:25:18;;;;;;;0.88;0.28;;;;;26.40;102232.00;;;;5040890;28;20200;-78
2022/07/15 09:27:46;;;;;;;1.65;0.50;;;;;26.50;102227.00;;;;5047590;28;20203;-79
2022/07/15 09:36:05;;;;;;;1.48;0.50;;;;;26.80;102217.00;;;;5027532;28;20275;-78
2022/07/15 09:38:40;;;;;;;0.90;0.43;;;;;26.90;102220.00;;;;5028108;28;20230;-78
2022/07/15 09:41:08;;;;;;;0.30;0.20;;;;;26.90;102222.00;;;;5031632;28;20206;-78
2022/07/15 09:43:52;;;;;;;1.42;0.50;;;;;26.80;102223.00;;;;5047224;28;20226;-78
2022/07/15 09:46:20;;;;;;;0.85;0.40;;;;;26.90;102226.00;;;;5046455;28;20203;-78
2022/07/15 09:48:49;;;;;;;0.88;0.30;;;;;26.90;102222.00;;;;5037001;28;20193;-78
2022/07/15 09:51:17;;;;;;;1.10;0.50;;;;;27.00;102231.00;;;;5041264;28;20199;-78
2022/07/15 09:53:46;;;;;;;1.15;0.30;;;;;27.00;102223.00;;;;5047702;28;20215;-78
2022/07/15 09:56:16;;;;;;;1.73;0.38;;;;;27.10;102211.00;;;;5047133;28;20247;-78
2022/07/15 09:58:44;;;;;;;1.73;0.43;;;;;27.10;102215.00;;;;5037890;28;20698;-78
2022/07/15 10:01:12;;;;;;;1.35;0.40;;;;;27.10;102219.00;;;;5029758;28;20358;-78
2022/07/15 10:03:41;;;;;;;0.50;0.20;;;;;27.20;102216.00;;;;5041268;28;20246;-78
2022/07/15 10:06:10;;;;;;;0.60;0.25;;;;;27.30;102221.00;;;;5027071;28;20903;-78
2022/07/15 10:08:37;;;;;;;0.90;0.28;;;;;27.30;102205.00;;;;5041748;28;20207;-78
2022/07/15 10:11:11;;;;;;;2.22;0.28;;;;;27.30;102208.00;;;;5045808;28;20211;-77
2022/07/15 10:14:05;;;;;;;2.45;0.45;;;;;27.40;102203.00;;;;5047840;28;20215;-78
2022/07/15 10:17:02;;;;;;;1.33;0.40;;;;;27.50;102208.00;;;;5030882;28;20207;-78
2022/07/15 10:19:48;;;;;;;1.10;0.40;;;;;27.60;102208.00;;;;5016394;28;20235;-78
2022/07/15 10:22:22;;;;;;;0.40;0.25;;;;;27.80;102211.00;;;;5029821;28;20203;-78
2022/07/15 10:25:08;;;;;;;1.55;0.30;;;;;27.80;102212.00;;;;5030734;28;21305;-78
2022/07/15 10:27:52;;;;;;;0.75;0.15;;;;;27.80;102206.00;;;;5030831;28;20211;-78
2022/07/15 10:30:21;;;;;;;1.20;0.30;;;;;27.90;102205.00;;;;5030970;28;20689;-78
2022/07/15 10:33:13;;;;;;;0.80;0.32;;;;;27.70;102202.00;;;;5038666;28;20207;-78
2022/07/15 10:35:46;;;;;;;2.08;0.63;;;;;27.80;102199.00;;;;5032141;28;20577;-77
2022/07/15 10:38:33;;;;;;;0.57;0.10;;;;;27.70;102196.00;;;;5049886;28;20223;-78
2022/07/15 10:41:12;;;;;;;0.90;0.22;;;;;27.70;102195.00;;;;5050551;28;20210;-78
2022/07/15 10:43:44;;;;;;;1.42;0.20;;;;;27.80;102190.00;;;;5037294;28;20278;-78
2022/07/15 10:46:26;;;;;;;1.20;0.32;;;;;27.70;102193.00;;;;5040260;28;20670;-78
2022/07/15 10:49:13;;;;;;;0.20;0.15;;;;;27.80;102188.00;;;;5047604;28;20216;-78
2022/07/15 10:51:46;;;;;;;0.45;0.20;;;;;27.70;102182.00;;;;5030424;28;20682;-78
2022/07/15 10:54:40;;;;;;;0.65;0.20;;;;;27.60;102178.00;;;;5030300;28;20206;-78
2022/07/15 10:57:08;;;;;;;0.45;0.20;;;;;27.70;102182.00;;;;5029804;28;20271;-78
2022/07/15 10:59:47;;;;;;;0.17;0.05;;;;;27.60;102190.00;;;;5030624;28;20437;-78
2022/07/15 11:02:18;;;;;;;1.15;0.30;;;;;27.60;102182.00;;;;5030209;28;20203;-78
2022/07/15 11:04:46;;;;;;;0.50;0.20;;;;;27.60;102180.00;;;;5030249;28;20203;-77
2022/07/15 11:07:30;;;;;;;1.00;0.13;;;;;27.40;102160.00;;;;5037758;28;20197;-78
2022/07/15 11:10:14;;;;;;;0.63;0.10;;;;;27.60;102161.00;;;;5028961;28;20211;-78
2022/07/15 11:13:06;;;;;;;2.78;0.40;;;;;27.40;102159.00;;;;5029045;28;20666;-78
2022/07/15 11:15:36;;;;;;;1.52;0.20;;;;;27.50;102156.00;;;;5029833;28;20258;-78
2022/07/15 11:18:03;;;;;;;3.00;0.30;;;;;27.50;102157.00;;;;5029683;28;20212;-78
2022/07/15 11:20:34;;;;;;;0.25;0.20;;;;;27.50;102147.00;;;;5030072;28;20230;-78
2022/07/15 11:23:02;;;;;;;1.10;0.20;;;;;27.50;102145.00;;;;5033560;28;20203;-78
2022/07/15 11:25:32;;;;;;;0.50;0.15;;;;;27.50;102158.00;;;;5050056;28;20211;-78
2022/07/15 11:28:02;;;;;;;0.40;0.20;;;;;27.60;102158.00;;;;5050000;28;20286;-77
2022/07/15 11:30:33;;;;;;;1.30;0.20;;;;;27.60;102155.00;;;;5050210;28;20211;-77
2022/07/15 11:33:09;;;;;;;1.27;0.15;;;;;27.70;102160.00;;;;5037967;28;20199;-78
2022/07/15 11:35:50;;;;;;;1.58;0.50;;;;;27.60;102160.00;;;;5030518;28;20196;-78
2022/07/15 11:38:19;;;;;;;2.53;0.50;;;;;27.80;102152.00;;;;5031028;28;20227;-78
2022/07/15 11:46:21;;;;;;;1.17;0.30;;;;;27.80;102161.00;;;;5046550;28;20705;-78
2022/07/15 11:48:51;;;;;;;0.17;0.10;;;;;27.80;102163.00;;;;5029974;28;20211;-78
2022/07/15 11:51:24;;;;;;;0.13;0.10;;;;;27.80;102168.00;;;;5032013;28;20657;-77
2022/07/15 11:53:51;;;;;;;0.32;0.15;;;;;27.80;102156.00;;;;5047620;28;20207;-78
2022/07/15 11:56:18;;;;;;;1.08;0.38;;;;;27.80;102149.00;;;;5048333;28;20609;-77
2022/07/15 11:58:51;;;;;;;0.45;0.15;;;;;27.70;102153.00;;;;5047903;28;20224;-79
2022/07/15 12:01:21;;;;;;;0.80;0.20;;;;;27.70;102156.00;;;;5048576;28;20223;-77
2022/07/15 12:03:53;;;;;;;0.50;0.20;;;;;27.70;102160.00;;;;5049208;28;20210;-76
2022/07/15 12:06:24;;;;;;;0.77;0.25;;;;;27.70;102162.00;;;;5042015;28;20196;-77
2022/07/15 12:08:53;;;;;;;0.68;0.22;;;;;27.60;102158.00;;;;5029321;28;20211;-79
2022/07/15 12:11:23;;;;;;;1.02;0.30;;;;;27.60;102149.00;;;;5028551;28;20202;-77
2022/07/15 12:13:54;;;;;;;0.50;0.20;;;;;27.50;102148.00;;;;5030637;28;20192;-77
2022/07/15 12:16:25;;;;;;;0.38;0.20;;;;;27.50;102148.00;;;;5046059;28;20208;-77
2022/07/15 12:18:55;;;;;;;1.20;0.43;;;;;27.50;102145.00;;;;5028543;28;20255;-76
2022/07/15 12:21:26;;;;;;;0.28;0.17;;;;;27.50;102149.00;;;;5036323;28;21075;-77
2022/07/15 12:24:07;;;;;;;0.73;0.30;;;;;27.40;102151.00;;;;5048341;28;20203;-77
2022/07/15 12:26:38;;;;;;;0.20;0.20;;;;;27.40;102148.00;;;;5036970;28;20227;-77
2022/07/15 12:29:08;;;;;;;1.95;0.30;;;;;27.40;102150.00;;;;5047331;28;20257;-78
2022/07/15 12:31:37;;;;;;;0.35;0.20;;;;;27.40;102154.00;;;;5048208;28;20204;-77
2022/07/15 12:34:06;;;;;;;0.47;0.28;;;;;27.50;102150.00;;;;5028415;28;20200;-78